sensor_id;sensor_type;location;lat;lon;timestamp;P1;durP1;ratioP1;P2;durP2;ratioP2
71475;SDS011;59286;59.274;17.974;2022-07-03T00:01:24;3.22;;;1.83;;
71475;SDS011;59286;59.274;17.974;2022-07-03T00:03:50;3.95;;;2.00;;
71475;SDS011;59286;59.274;17.974;2022-07-03T00:06:21;5.15;;;1.67;;
71475;SDS011;59286;59.274;17.974;2022-07-03T00:08:55;2.85;;;1.75;;
71475;SDS011;59286;59.274;17.974;2022-07-03T00:11:26;3.35;;;1.75;;
71475;SDS011;59286;59.274;17.974;2022-07-03T00:14:00;4.85;;;1.45;;
71475;SDS011;59286;59.274;17.974;2022-07-03T00:16:26;4.80;;;2.08;;
71475;SDS011;59286;59.274;17.974;2022-07-03T00:18:51;2.13;;;1.48;;
71475;SDS011;59286;59.274;17.974;2022-07-03T00:21:31;5.10;;;1.73;;
71475;SDS011;59286;59.274;17.974;2022-07-03T00:24:25;3.40;;;2.10;;
71475;SDS011;59286;59.274;17.974;2022-07-03T00:27:20;8.02;;;2.17;;
71475;SDS011;59286;59.274;17.974;2022-07-03T00:29:59;3.90;;;1.45;;
71475;SDS011;59286;59.274;17.974;2022-07-03T00:32:37;4.18;;;1.40;;
71475;SDS011;59286;59.274;17.974;2022-07-03T00:35:20;2.03;;;1.30;;
71475;SDS011;59286;59.274;17.974;2022-07-03T00:37:49;2.85;;;1.40;;
71475;SDS011;59286;59.274;17.974;2022-07-03T00:40:20;1.67;;;1.05;;
71475;SDS011;59286;59.274;17.974;2022-07-03T00:42:52;5.63;;;1.90;;
71475;SDS011;59286;59.274;17.974;2022-07-03T00:45:19;4.07;;;1.65;;
71475;SDS011;59286;59.274;17.974;2022-07-03T00:48:01;2.70;;;1.50;;
71475;SDS011;59286;59.274;17.974;2022-07-03T00:50:34;2.40;;;1.30;;
71475;SDS011;59286;59.274;17.974;2022-07-03T00:53:05;1.83;;;1.15;;
71475;SDS011;59286;59.274;17.974;2022-07-03T00:55:34;2.83;;;1.50;;
71475;SDS011;59286;59.274;17.974;2022-07-03T00:58:07;4.40;;;1.50;;
71475;SDS011;59286;59.274;17.974;2022-07-03T01:00:32;2.88;;;1.20;;
71475;SDS011;59286;59.274;17.974;2022-07-03T01:03:09;3.72;;;1.45;;
71475;SDS011;59286;59.274;17.974;2022-07-03T01:05:54;4.35;;;1.50;;
71475;SDS011;59286;59.274;17.974;2022-07-03T01:13:38;4.57;;;1.65;;
71475;SDS011;59286;59.274;17.974;2022-07-03T01:16:23;4.30;;;1.35;;
71475;SDS011;59286;59.274;17.974;2022-07-03T01:18:59;3.70;;;1.38;;
71475;SDS011;59286;59.274;17.974;2022-07-03T01:28:04;3.60;;;1.58;;
71475;SDS011;59286;59.274;17.974;2022-07-03T01:30:40;1.88;;;1.10;;
71475;SDS011;59286;59.274;17.974;2022-07-03T01:33:09;3.08;;;1.80;;
71475;SDS011;59286;59.274;17.974;2022-07-03T01:35:41;1.95;;;1.40;;
71475;SDS011;59286;59.274;17.974;2022-07-03T01:38:12;2.30;;;1.42;;
71475;SDS011;59286;59.274;17.974;2022-07-03T01:40:39;1.73;;;1.25;;
71475;SDS011;59286;59.274;17.974;2022-07-03T01:43:07;2.45;;;1.50;;
71475;SDS011;59286;59.274;17.974;2022-07-03T01:45:44;3.35;;;1.60;;
71475;SDS011;59286;59.274;17.974;2022-07-03T01:48:12;1.85;;;1.30;;
71475;SDS011;59286;59.274;17.974;2022-07-03T01:50:38;3.47;;;1.35;;
71475;SDS011;59286;59.274;17.974;2022-07-03T01:53:06;2.38;;;1.40;;
71475;SDS011;59286;59.274;17.974;2022-07-03T01:55:33;2.75;;;1.52;;
71475;SDS011;59286;59.274;17.974;2022-07-03T01:57:59;3.90;;;1.30;;
71475;SDS011;59286;59.274;17.974;2022-07-03T02:00:26;3.10;;;1.42;;
71475;SDS011;59286;59.274;17.974;2022-07-03T02:05:38;6.18;;;1.60;;
71475;SDS011;59286;59.274;17.974;2022-07-03T02:08:11;2.97;;;1.40;;
71475;SDS011;59286;59.274;17.974;2022-07-03T02:10:49;2.85;;;1.63;;
71475;SDS011;59286;59.274;17.974;2022-07-03T02:13:28;1.90;;;1.40;;
71475;SDS011;59286;59.274;17.974;2022-07-03T02:15:54;3.15;;;1.88;;
71475;SDS011;59286;59.274;17.974;2022-07-03T02:18:33;3.88;;;1.40;;
71475;SDS011;59286;59.274;17.974;2022-07-03T02:21:10;3.15;;;1.50;;
71475;SDS011;59286;59.274;17.974;2022-07-03T02:23:43;2.28;;;1.58;;
71475;SDS011;59286;59.274;17.974;2022-07-03T02:26:12;3.20;;;1.20;;
71475;SDS011;59286;59.274;17.974;2022-07-03T02:31:26;3.45;;;1.77;;
71475;SDS011;59286;59.274;17.974;2022-07-03T02:33:56;2.85;;;1.50;;
71475;SDS011;59286;59.274;17.974;2022-07-03T02:36:24;4.93;;;1.60;;
71475;SDS011;59286;59.274;17.974;2022-07-03T02:38:54;3.20;;;1.83;;
71475;SDS011;59286;59.274;17.974;2022-07-03T02:41:23;5.85;;;1.48;;
71475;SDS011;59286;59.274;17.974;2022-07-03T02:49:50;3.63;;;1.80;;
71475;SDS011;59286;59.274;17.974;2022-07-03T03:01:07;2.70;;;1.52;;
71475;SDS011;59286;59.274;17.974;2022-07-03T03:03:38;3.53;;;1.65;;
71475;SDS011;59286;59.274;17.974;2022-07-03T03:06:15;3.30;;;1.60;;
71475;SDS011;59286;59.274;17.974;2022-07-03T03:08:49;3.67;;;1.77;;
71475;SDS011;59286;59.274;17.974;2022-07-03T03:12:02;5.30;;;1.75;;
71475;SDS011;59286;59.274;17.974;2022-07-03T03:14:08;4.35;;;1.80;;
71475;SDS011;59286;59.274;17.974;2022-07-03T03:16:36;3.35;;;1.60;;
71475;SDS011;59286;59.274;17.974;2022-07-03T03:19:06;6.78;;;1.52;;
71475;SDS011;59286;59.274;17.974;2022-07-03T03:21:32;3.70;;;1.52;;
71475;SDS011;59286;59.274;17.974;2022-07-03T03:24:10;3.00;;;1.50;;
71475;SDS011;59286;59.274;17.974;2022-07-03T03:26:36;2.50;;;1.10;;
71475;SDS011;59286;59.274;17.974;2022-07-03T03:29:03;4.45;;;1.50;;
71475;SDS011;59286;59.274;17.974;2022-07-03T03:31:28;2.80;;;1.02;;
71475;SDS011;59286;59.274;17.974;2022-07-03T03:33:54;5.10;;;1.42;;
71475;SDS011;59286;59.274;17.974;2022-07-03T03:36:20;3.35;;;1.30;;
71475;SDS011;59286;59.274;17.974;2022-07-03T03:38:47;2.72;;;1.52;;
71475;SDS011;59286;59.274;17.974;2022-07-03T03:41:13;3.95;;;1.42;;
71475;SDS011;59286;59.274;17.974;2022-07-03T03:43:38;1.40;;;1.00;;
71475;SDS011;59286;59.274;17.974;2022-07-03T03:46:04;3.50;;;1.25;;
71475;SDS011;59286;59.274;17.974;2022-07-03T03:48:33;2.95;;;1.10;;
71475;SDS011;59286;59.274;17.974;2022-07-03T03:51:00;3.72;;;1.27;;
71475;SDS011;59286;59.274;17.974;2022-07-03T03:53:27;4.22;;;1.17;;
71475;SDS011;59286;59.274;17.974;2022-07-03T03:56:01;3.28;;;1.00;;
71475;SDS011;59286;59.274;17.974;2022-07-03T03:58:35;5.35;;;1.60;;
71475;SDS011;59286;59.274;17.974;2022-07-03T04:01:02;5.63;;;1.10;;
71475;SDS011;59286;59.274;17.974;2022-07-03T04:03:29;2.92;;;1.02;;
71475;SDS011;59286;59.274;17.974;2022-07-03T04:05:56;3.95;;;1.00;;
71475;SDS011;59286;59.274;17.974;2022-07-03T04:08:22;1.98;;;0.85;;
71475;SDS011;59286;59.274;17.974;2022-07-03T04:10:49;6.13;;;1.40;;
71475;SDS011;59286;59.274;17.974;2022-07-03T04:13:15;3.88;;;1.40;;
71475;SDS011;59286;59.274;17.974;2022-07-03T04:15:42;2.60;;;1.30;;
71475;SDS011;59286;59.274;17.974;2022-07-03T04:18:08;6.05;;;1.10;;
71475;SDS011;59286;59.274;17.974;2022-07-03T04:20:33;3.58;;;1.27;;
71475;SDS011;59286;59.274;17.974;2022-07-03T04:22:59;3.97;;;1.27;;
71475;SDS011;59286;59.274;17.974;2022-07-03T04:25:25;5.07;;;1.13;;
71475;SDS011;59286;59.274;17.974;2022-07-03T04:27:51;6.85;;;1.10;;
71475;SDS011;59286;59.274;17.974;2022-07-03T04:30:17;3.40;;;0.95;;
71475;SDS011;59286;59.274;17.974;2022-07-03T04:32:42;4.05;;;1.00;;
71475;SDS011;59286;59.274;17.974;2022-07-03T04:35:08;3.22;;;1.23;;
71475;SDS011;59286;59.274;17.974;2022-07-03T04:37:34;2.45;;;0.95;;
71475;SDS011;59286;59.274;17.974;2022-07-03T04:39:59;4.50;;;1.15;;
71475;SDS011;59286;59.274;17.974;2022-07-03T04:42:25;2.95;;;1.15;;
71475;SDS011;59286;59.274;17.974;2022-07-03T04:44:50;4.22;;;1.13;;
71475;SDS011;59286;59.274;17.974;2022-07-03T04:47:16;4.97;;;1.13;;
71475;SDS011;59286;59.274;17.974;2022-07-03T04:49:41;2.83;;;0.90;;
71475;SDS011;59286;59.274;17.974;2022-07-03T04:52:07;4.43;;;1.05;;
71475;SDS011;59286;59.274;17.974;2022-07-03T04:54:33;4.15;;;1.40;;
71475;SDS011;59286;59.274;17.974;2022-07-03T04:56:58;2.35;;;1.00;;
71475;SDS011;59286;59.274;17.974;2022-07-03T04:59:24;3.88;;;1.13;;
71475;SDS011;59286;59.274;17.974;2022-07-03T05:01:49;3.47;;;0.98;;
71475;SDS011;59286;59.274;17.974;2022-07-03T05:04:15;4.50;;;0.93;;
71475;SDS011;59286;59.274;17.974;2022-07-03T05:06:41;5.53;;;1.10;;
71475;SDS011;59286;59.274;17.974;2022-07-03T05:09:07;5.22;;;1.15;;
71475;SDS011;59286;59.274;17.974;2022-07-03T05:11:33;2.83;;;0.90;;
71475;SDS011;59286;59.274;17.974;2022-07-03T05:13:58;3.15;;;0.88;;
71475;SDS011;59286;59.274;17.974;2022-07-03T05:16:24;3.50;;;0.80;;
71475;SDS011;59286;59.274;17.974;2022-07-03T05:18:49;2.97;;;1.23;;
71475;SDS011;59286;59.274;17.974;2022-07-03T05:21:14;4.72;;;1.20;;
71475;SDS011;59286;59.274;17.974;2022-07-03T05:23:40;4.55;;;0.95;;
71475;SDS011;59286;59.274;17.974;2022-07-03T05:26:05;3.50;;;1.10;;
71475;SDS011;59286;59.274;17.974;2022-07-03T05:28:30;4.20;;;1.20;;
71475;SDS011;59286;59.274;17.974;2022-07-03T05:30:56;2.95;;;0.95;;
71475;SDS011;59286;59.274;17.974;2022-07-03T05:33:21;7.88;;;1.05;;
71475;SDS011;59286;59.274;17.974;2022-07-03T05:35:47;2.72;;;0.80;;
71475;SDS011;59286;59.274;17.974;2022-07-03T05:38:12;3.17;;;1.00;;
71475;SDS011;59286;59.274;17.974;2022-07-03T05:40:38;3.92;;;0.90;;
71475;SDS011;59286;59.274;17.974;2022-07-03T05:43:03;1.95;;;0.95;;
71475;SDS011;59286;59.274;17.974;2022-07-03T05:45:29;2.88;;;0.90;;
71475;SDS011;59286;59.274;17.974;2022-07-03T05:47:54;4.10;;;0.90;;
71475;SDS011;59286;59.274;17.974;2022-07-03T05:50:20;2.42;;;0.77;;
71475;SDS011;59286;59.274;17.974;2022-07-03T05:52:45;1.65;;;0.68;;
71475;SDS011;59286;59.274;17.974;2022-07-03T05:55:11;3.47;;;0.93;;
71475;SDS011;59286;59.274;17.974;2022-07-03T05:57:36;1.98;;;0.90;;
71475;SDS011;59286;59.274;17.974;2022-07-03T06:00:02;3.58;;;0.95;;
71475;SDS011;59286;59.274;17.974;2022-07-03T06:02:29;5.10;;;1.00;;
71475;SDS011;59286;59.274;17.974;2022-07-03T06:04:54;3.95;;;0.80;;
71475;SDS011;59286;59.274;17.974;2022-07-03T06:07:19;3.58;;;0.90;;
71475;SDS011;59286;59.274;17.974;2022-07-03T06:09:45;3.85;;;1.10;;
71475;SDS011;59286;59.274;17.974;2022-07-03T06:12:10;4.30;;;0.73;;
71475;SDS011;59286;59.274;17.974;2022-07-03T06:14:36;3.42;;;0.88;;
71475;SDS011;59286;59.274;17.974;2022-07-03T06:17:01;3.28;;;1.00;;
71475;SDS011;59286;59.274;17.974;2022-07-03T06:19:27;2.78;;;0.80;;
71475;SDS011;59286;59.274;17.974;2022-07-03T06:21:53;3.83;;;1.00;;
71475;SDS011;59286;59.274;17.974;2022-07-03T06:24:19;2.25;;;0.73;;
71475;SDS011;59286;59.274;17.974;2022-07-03T06:26:44;4.28;;;0.98;;
71475;SDS011;59286;59.274;17.974;2022-07-03T06:29:10;5.35;;;1.13;;
71475;SDS011;59286;59.274;17.974;2022-07-03T06:31:35;4.50;;;1.10;;
71475;SDS011;59286;59.274;17.974;2022-07-03T06:34:00;3.85;;;0.88;;
71475;SDS011;59286;59.274;17.974;2022-07-03T06:36:26;4.28;;;0.90;;
71475;SDS011;59286;59.274;17.974;2022-07-03T06:38:51;2.13;;;0.90;;
71475;SDS011;59286;59.274;17.974;2022-07-03T06:41:16;3.67;;;0.70;;
71475;SDS011;59286;59.274;17.974;2022-07-03T06:43:42;3.55;;;0.90;;
71475;SDS011;59286;59.274;17.974;2022-07-03T06:46:07;3.88;;;0.98;;
71475;SDS011;59286;59.274;17.974;2022-07-03T06:48:33;4.75;;;1.00;;
71475;SDS011;59286;59.274;17.974;2022-07-03T06:50:58;3.25;;;0.90;;
71475;SDS011;59286;59.274;17.974;2022-07-03T06:53:23;3.13;;;0.77;;
71475;SDS011;59286;59.274;17.974;2022-07-03T06:55:49;3.58;;;0.95;;
71475;SDS011;59286;59.274;17.974;2022-07-03T06:58:14;4.78;;;0.98;;
71475;SDS011;59286;59.274;17.974;2022-07-03T07:00:40;4.07;;;0.80;;
71475;SDS011;59286;59.274;17.974;2022-07-03T07:03:05;5.15;;;0.85;;
71475;SDS011;59286;59.274;17.974;2022-07-03T07:05:30;4.95;;;0.85;;
71475;SDS011;59286;59.274;17.974;2022-07-03T07:07:56;3.17;;;0.70;;
71475;SDS011;59286;59.274;17.974;2022-07-03T07:10:21;3.88;;;0.75;;
71475;SDS011;59286;59.274;17.974;2022-07-03T07:12:47;3.60;;;1.10;;
71475;SDS011;59286;59.274;17.974;2022-07-03T07:15:12;1.52;;;0.80;;
71475;SDS011;59286;59.274;17.974;2022-07-03T07:17:37;5.72;;;0.80;;
71475;SDS011;59286;59.274;17.974;2022-07-03T07:20:03;3.05;;;0.77;;
71475;SDS011;59286;59.274;17.974;2022-07-03T07:22:29;4.45;;;0.90;;
71475;SDS011;59286;59.274;17.974;2022-07-03T07:24:54;2.85;;;0.60;;
71475;SDS011;59286;59.274;17.974;2022-07-03T07:27:19;4.00;;;0.73;;
71475;SDS011;59286;59.274;17.974;2022-07-03T07:29:45;5.90;;;0.90;;
71475;SDS011;59286;59.274;17.974;2022-07-03T07:32:10;2.80;;;0.90;;
71475;SDS011;59286;59.274;17.974;2022-07-03T07:34:36;5.05;;;0.90;;
71475;SDS011;59286;59.274;17.974;2022-07-03T07:37:01;4.38;;;0.90;;
71475;SDS011;59286;59.274;17.974;2022-07-03T07:39:26;2.55;;;0.90;;
71475;SDS011;59286;59.274;17.974;2022-07-03T07:41:52;2.25;;;0.68;;
71475;SDS011;59286;59.274;17.974;2022-07-03T07:44:17;2.70;;;0.70;;
71475;SDS011;59286;59.274;17.974;2022-07-03T07:46:43;2.72;;;0.70;;
71475;SDS011;59286;59.274;17.974;2022-07-03T07:49:08;2.85;;;0.60;;
71475;SDS011;59286;59.274;17.974;2022-07-03T07:51:34;3.95;;;0.80;;
71475;SDS011;59286;59.274;17.974;2022-07-03T07:53:59;4.13;;;0.98;;
71475;SDS011;59286;59.274;17.974;2022-07-03T07:56:25;5.05;;;0.60;;
71475;SDS011;59286;59.274;17.974;2022-07-03T07:58:51;2.17;;;0.70;;
71475;SDS011;59286;59.274;17.974;2022-07-03T08:01:17;7.10;;;0.80;;
71475;SDS011;59286;59.274;17.974;2022-07-03T08:04:01;3.67;;;0.90;;
71475;SDS011;59286;59.274;17.974;2022-07-03T08:06:45;2.13;;;0.80;;
71475;SDS011;59286;59.274;17.974;2022-07-03T08:09:11;6.32;;;0.77;;
71475;SDS011;59286;59.274;17.974;2022-07-03T08:11:36;3.28;;;0.90;;
71475;SDS011;59286;59.274;17.974;2022-07-03T08:14:01;4.38;;;0.80;;
71475;SDS011;59286;59.274;17.974;2022-07-03T08:16:30;4.28;;;0.70;;
71475;SDS011;59286;59.274;17.974;2022-07-03T08:18:56;1.85;;;0.60;;
71475;SDS011;59286;59.274;17.974;2022-07-03T08:21:22;3.80;;;0.90;;
71475;SDS011;59286;59.274;17.974;2022-07-03T08:23:47;5.15;;;0.90;;
71475;SDS011;59286;59.274;17.974;2022-07-03T08:26:13;3.72;;;0.93;;
71475;SDS011;59286;59.274;17.974;2022-07-03T08:28:38;4.35;;;0.73;;
71475;SDS011;59286;59.274;17.974;2022-07-03T08:31:04;3.67;;;0.73;;
71475;SDS011;59286;59.274;17.974;2022-07-03T08:33:29;3.03;;;0.90;;
71475;SDS011;59286;59.274;17.974;2022-07-03T08:35:54;4.38;;;0.82;;
71475;SDS011;59286;59.274;17.974;2022-07-03T08:38:21;4.65;;;0.80;;
71475;SDS011;59286;59.274;17.974;2022-07-03T08:40:56;4.32;;;0.70;;
71475;SDS011;59286;59.274;17.974;2022-07-03T08:43:24;3.60;;;1.00;;
71475;SDS011;59286;59.274;17.974;2022-07-03T08:45:49;3.08;;;0.85;;
71475;SDS011;59286;59.274;17.974;2022-07-03T08:48:15;4.45;;;0.82;;
71475;SDS011;59286;59.274;17.974;2022-07-03T08:50:43;4.22;;;1.10;;
71475;SDS011;59286;59.274;17.974;2022-07-03T08:53:10;4.05;;;0.80;;
71475;SDS011;59286;59.274;17.974;2022-07-03T08:55:36;2.88;;;0.70;;
71475;SDS011;59286;59.274;17.974;2022-07-03T08:58:02;3.15;;;0.77;;
71475;SDS011;59286;59.274;17.974;2022-07-03T09:00:30;3.20;;;0.88;;
71475;SDS011;59286;59.274;17.974;2022-07-03T09:02:57;2.63;;;0.93;;
71475;SDS011;59286;59.274;17.974;2022-07-03T09:05:24;7.10;;;1.10;;
71475;SDS011;59286;59.274;17.974;2022-07-03T09:07:50;4.60;;;1.23;;
71475;SDS011;59286;59.274;17.974;2022-07-03T09:10:17;6.40;;;0.93;;
71475;SDS011;59286;59.274;17.974;2022-07-03T09:12:44;2.67;;;0.70;;
71475;SDS011;59286;59.274;17.974;2022-07-03T09:15:11;1.90;;;0.70;;
71475;SDS011;59286;59.274;17.974;2022-07-03T09:17:37;2.28;;;0.50;;
71475;SDS011;59286;59.274;17.974;2022-07-03T09:20:04;2.50;;;0.63;;
71475;SDS011;59286;59.274;17.974;2022-07-03T09:22:32;11.00;;;0.82;;
71475;SDS011;59286;59.274;17.974;2022-07-03T09:25:03;10.98;;;0.85;;
71475;SDS011;59286;59.274;17.974;2022-07-03T09:27:32;7.97;;;0.95;;
71475;SDS011;59286;59.274;17.974;2022-07-03T09:29:58;1.88;;;0.70;;
71475;SDS011;59286;59.274;17.974;2022-07-03T09:35:20;3.35;;;0.50;;
71475;SDS011;59286;59.274;17.974;2022-07-03T09:37:49;6.85;;;0.70;;
71475;SDS011;59286;59.274;17.974;2022-07-03T09:40:21;2.13;;;0.60;;
71475;SDS011;59286;59.274;17.974;2022-07-03T09:45:52;1.50;;;0.63;;
71475;SDS011;59286;59.274;17.974;2022-07-03T09:48:28;4.70;;;0.80;;
71475;SDS011;59286;59.274;17.974;2022-07-03T09:53:52;4.53;;;0.57;;
71475;SDS011;59286;59.274;17.974;2022-07-03T09:56:19;3.22;;;0.52;;
71475;SDS011;59286;59.274;17.974;2022-07-03T09:59:02;2.72;;;0.63;;
71475;SDS011;59286;59.274;17.974;2022-07-03T10:01:31;4.15;;;0.55;;
71475;SDS011;59286;59.274;17.974;2022-07-03T10:04:10;2.47;;;0.50;;
71475;SDS011;59286;59.274;17.974;2022-07-03T10:09:21;3.45;;;0.77;;
71475;SDS011;59286;59.274;17.974;2022-07-03T10:11:48;6.00;;;0.90;;
71475;SDS011;59286;59.274;17.974;2022-07-03T10:14:17;2.50;;;0.50;;
71475;SDS011;59286;59.274;17.974;2022-07-03T10:16:44;8.68;;;0.70;;
71475;SDS011;59286;59.274;17.974;2022-07-03T10:19:14;3.58;;;0.50;;
71475;SDS011;59286;59.274;17.974;2022-07-03T10:21:44;2.50;;;0.68;;
71475;SDS011;59286;59.274;17.974;2022-07-03T10:24:14;2.40;;;0.50;;
71475;SDS011;59286;59.274;17.974;2022-07-03T10:26:42;0.80;;;0.40;;
71475;SDS011;59286;59.274;17.974;2022-07-03T10:29:09;1.58;;;0.47;;
71475;SDS011;59286;59.274;17.974;2022-07-03T10:31:36;1.90;;;0.60;;
71475;SDS011;59286;59.274;17.974;2022-07-03T10:34:04;2.17;;;0.43;;
71475;SDS011;59286;59.274;17.974;2022-07-03T10:36:31;1.27;;;0.55;;
71475;SDS011;59286;59.274;17.974;2022-07-03T10:38:58;14.88;;;0.77;;
71475;SDS011;59286;59.274;17.974;2022-07-03T10:44:29;1.88;;;0.60;;
71475;SDS011;59286;59.274;17.974;2022-07-03T10:50:06;5.35;;;0.60;;
71475;SDS011;59286;59.274;17.974;2022-07-03T10:52:34;4.32;;;0.50;;
71475;SDS011;59286;59.274;17.974;2022-07-03T10:54:59;1.45;;;0.47;;
71475;SDS011;59286;59.274;17.974;2022-07-03T10:57:26;1.55;;;0.43;;
71475;SDS011;59286;59.274;17.974;2022-07-03T11:05:07;1.33;;;0.40;;
71475;SDS011;59286;59.274;17.974;2022-07-03T11:07:38;2.05;;;0.50;;
71475;SDS011;59286;59.274;17.974;2022-07-03T11:18:33;2.67;;;0.50;;
71475;SDS011;59286;59.274;17.974;2022-07-03T11:26:32;2.75;;;0.50;;
71475;SDS011;59286;59.274;17.974;2022-07-03T11:28:57;2.83;;;0.55;;
71475;SDS011;59286;59.274;17.974;2022-07-03T11:31:23;2.10;;;0.50;;
71475;SDS011;59286;59.274;17.974;2022-07-03T11:39:02;1.52;;;0.57;;
71475;SDS011;59286;59.274;17.974;2022-07-03T11:44:07;2.20;;;0.50;;
71475;SDS011;59286;59.274;17.974;2022-07-03T11:46:35;2.50;;;0.43;;
71475;SDS011;59286;59.274;17.974;2022-07-03T11:49:05;18.20;;;1.10;;
71475;SDS011;59286;59.274;17.974;2022-07-03T11:51:31;4.90;;;0.50;;
71475;SDS011;59286;59.274;17.974;2022-07-03T11:53:57;1.52;;;0.30;;
71475;SDS011;59286;59.274;17.974;2022-07-03T11:56:22;1.67;;;0.73;;
71475;SDS011;59286;59.274;17.974;2022-07-03T11:58:52;3.42;;;0.50;;
71475;SDS011;59286;59.274;17.974;2022-07-03T12:03:48;1.55;;;0.50;;
71475;SDS011;59286;59.274;17.974;2022-07-03T12:06:14;4.15;;;0.45;;
71475;SDS011;59286;59.274;17.974;2022-07-03T12:08:40;1.77;;;0.40;;
71475;SDS011;59286;59.274;17.974;2022-07-03T12:11:11;4.07;;;0.50;;
71475;SDS011;59286;59.274;17.974;2022-07-03T12:13:37;2.75;;;0.40;;
71475;SDS011;59286;59.274;17.974;2022-07-03T12:16:07;3.25;;;0.47;;
71475;SDS011;59286;59.274;17.974;2022-07-03T12:18:41;2.47;;;0.40;;
71475;SDS011;59286;59.274;17.974;2022-07-03T12:21:17;1.10;;;0.40;;
71475;SDS011;59286;59.274;17.974;2022-07-03T12:23:47;4.63;;;0.38;;
71475;SDS011;59286;59.274;17.974;2022-07-03T12:26:29;3.03;;;0.50;;
71475;SDS011;59286;59.274;17.974;2022-07-03T12:29:03;2.85;;;0.40;;
71475;SDS011;59286;59.274;17.974;2022-07-03T12:31:30;3.08;;;0.47;;
71475;SDS011;59286;59.274;17.974;2022-07-03T12:33:57;2.35;;;0.63;;
71475;SDS011;59286;59.274;17.974;2022-07-03T12:36:26;2.25;;;0.25;;
71475;SDS011;59286;59.274;17.974;2022-07-03T12:38:52;0.95;;;0.38;;
71475;SDS011;59286;59.274;17.974;2022-07-03T12:41:20;2.90;;;0.45;;
71475;SDS011;59286;59.274;17.974;2022-07-03T12:43:46;1.75;;;0.50;;
71475;SDS011;59286;59.274;17.974;2022-07-03T12:46:20;0.85;;;0.30;;
71475;SDS011;59286;59.274;17.974;2022-07-03T12:48:50;1.85;;;0.50;;
71475;SDS011;59286;59.274;17.974;2022-07-03T12:51:17;3.15;;;0.60;;
71475;SDS011;59286;59.274;17.974;2022-07-03T12:54:13;1.52;;;0.30;;
71475;SDS011;59286;59.274;17.974;2022-07-03T12:56:40;5.68;;;0.60;;
71475;SDS011;59286;59.274;17.974;2022-07-03T12:59:23;2.10;;;0.50;;
71475;SDS011;59286;59.274;17.974;2022-07-03T13:01:59;1.10;;;0.38;;
71475;SDS011;59286;59.274;17.974;2022-07-03T13:04:29;1.55;;;0.40;;
71475;SDS011;59286;59.274;17.974;2022-07-03T13:07:14;3.05;;;0.70;;
71475;SDS011;59286;59.274;17.974;2022-07-03T13:09:40;2.13;;;0.60;;
71475;SDS011;59286;59.274;17.974;2022-07-03T13:12:07;2.88;;;0.60;;
71475;SDS011;59286;59.274;17.974;2022-07-03T13:14:33;2.40;;;0.57;;
71475;SDS011;59286;59.274;17.974;2022-07-03T13:16:58;1.77;;;0.40;;
71475;SDS011;59286;59.274;17.974;2022-07-03T13:19:25;2.10;;;0.60;;
71475;SDS011;59286;59.274;17.974;2022-07-03T13:21:56;2.05;;;0.30;;
71475;SDS011;59286;59.274;17.974;2022-07-03T13:24:22;2.42;;;0.60;;
71475;SDS011;59286;59.274;17.974;2022-07-03T13:26:49;10.43;;;0.80;;
71475;SDS011;59286;59.274;17.974;2022-07-03T13:29:15;2.50;;;0.65;;
71475;SDS011;59286;59.274;17.974;2022-07-03T13:31:41;1.85;;;0.50;;
71475;SDS011;59286;59.274;17.974;2022-07-03T13:34:06;1.60;;;0.60;;
71475;SDS011;59286;59.274;17.974;2022-07-03T13:36:32;2.55;;;0.50;;
71475;SDS011;59286;59.274;17.974;2022-07-03T13:38:59;1.38;;;0.57;;
71475;SDS011;59286;59.274;17.974;2022-07-03T13:41:25;6.10;;;0.60;;
71475;SDS011;59286;59.274;17.974;2022-07-03T13:43:51;3.80;;;0.65;;
71475;SDS011;59286;59.274;17.974;2022-07-03T13:46:17;1.13;;;0.47;;
71475;SDS011;59286;59.274;17.974;2022-07-03T13:48:46;1.90;;;0.50;;
71475;SDS011;59286;59.274;17.974;2022-07-03T13:51:12;1.85;;;0.60;;
71475;SDS011;59286;59.274;17.974;2022-07-03T13:53:38;3.17;;;0.80;;
71475;SDS011;59286;59.274;17.974;2022-07-03T13:56:03;21.70;;;5.38;;
71475;SDS011;59286;59.274;17.974;2022-07-03T13:58:29;2.15;;;1.30;;
71475;SDS011;59286;59.274;17.974;2022-07-03T14:00:54;3.28;;;1.63;;
71475;SDS011;59286;59.274;17.974;2022-07-03T14:03:20;2.38;;;0.70;;
71475;SDS011;59286;59.274;17.974;2022-07-03T14:05:46;3.70;;;0.50;;
71475;SDS011;59286;59.274;17.974;2022-07-03T14:08:13;1.95;;;0.60;;
71475;SDS011;59286;59.274;17.974;2022-07-03T14:10:38;1.45;;;0.70;;
71475;SDS011;59286;59.274;17.974;2022-07-03T14:13:04;4.13;;;0.70;;
71475;SDS011;59286;59.274;17.974;2022-07-03T14:15:30;1.92;;;0.90;;
71475;SDS011;59286;59.274;17.974;2022-07-03T14:17:55;1.70;;;0.63;;
71475;SDS011;59286;59.274;17.974;2022-07-03T14:20:24;2.58;;;0.80;;
71475;SDS011;59286;59.274;17.974;2022-07-03T14:22:53;1.92;;;0.93;;
71475;SDS011;59286;59.274;17.974;2022-07-03T14:25:19;1.92;;;0.70;;
71475;SDS011;59286;59.274;17.974;2022-07-03T14:27:44;1.75;;;0.60;;
71475;SDS011;59286;59.274;17.974;2022-07-03T14:30:28;1.63;;;0.57;;
71475;SDS011;59286;59.274;17.974;2022-07-03T14:33:12;1.88;;;0.60;;
71475;SDS011;59286;59.274;17.974;2022-07-03T14:35:37;1.67;;;0.60;;
71475;SDS011;59286;59.274;17.974;2022-07-03T14:38:03;4.28;;;0.80;;
71475;SDS011;59286;59.274;17.974;2022-07-03T14:40:28;1.50;;;0.60;;
71475;SDS011;59286;59.274;17.974;2022-07-03T14:42:54;1.23;;;0.50;;
71475;SDS011;59286;59.274;17.974;2022-07-03T14:45:21;2.35;;;0.60;;
71475;SDS011;59286;59.274;17.974;2022-07-03T14:47:47;3.00;;;0.70;;
71475;SDS011;59286;59.274;17.974;2022-07-03T14:50:12;1.98;;;0.70;;
71475;SDS011;59286;59.274;17.974;2022-07-03T14:52:38;1.23;;;0.40;;
71475;SDS011;59286;59.274;17.974;2022-07-03T14:55:03;1.25;;;0.60;;
71475;SDS011;59286;59.274;17.974;2022-07-03T15:00:07;1.85;;;0.77;;
71475;SDS011;59286;59.274;17.974;2022-07-03T15:05:18;2.47;;;0.60;;
71475;SDS011;59286;59.274;17.974;2022-07-03T15:07:52;2.85;;;0.63;;
71475;SDS011;59286;59.274;17.974;2022-07-03T15:10:31;1.10;;;0.43;;
71475;SDS011;59286;59.274;17.974;2022-07-03T15:12:58;2.95;;;0.50;;
71475;SDS011;59286;59.274;17.974;2022-07-03T15:15:25;1.27;;;0.50;;
71475;SDS011;59286;59.274;17.974;2022-07-03T15:17:54;1.88;;;0.60;;
71475;SDS011;59286;59.274;17.974;2022-07-03T15:20:22;1.52;;;0.50;;
71475;SDS011;59286;59.274;17.974;2022-07-03T15:22:50;0.75;;;0.60;;
71475;SDS011;59286;59.274;17.974;2022-07-03T15:25:18;2.25;;;0.60;;
71475;SDS011;59286;59.274;17.974;2022-07-03T15:27:46;1.85;;;0.50;;
71475;SDS011;59286;59.274;17.974;2022-07-03T15:30:20;1.50;;;0.60;;
71475;SDS011;59286;59.274;17.974;2022-07-03T15:32:46;2.05;;;0.68;;
71475;SDS011;59286;59.274;17.974;2022-07-03T15:35:13;1.17;;;0.40;;
71475;SDS011;59286;59.274;17.974;2022-07-03T15:40:33;1.98;;;0.60;;
71475;SDS011;59286;59.274;17.974;2022-07-03T15:43:17;4.53;;;0.65;;
71475;SDS011;59286;59.274;17.974;2022-07-03T15:45:56;2.10;;;0.68;;
71475;SDS011;59286;59.274;17.974;2022-07-03T15:51:47;3.50;;;0.50;;
71475;SDS011;59286;59.274;17.974;2022-07-03T15:54:20;1.75;;;0.52;;
71475;SDS011;59286;59.274;17.974;2022-07-03T15:56:52;5.28;;;0.70;;
71475;SDS011;59286;59.274;17.974;2022-07-03T15:59:23;4.15;;;0.68;;
71475;SDS011;59286;59.274;17.974;2022-07-03T16:01:54;2.40;;;0.70;;
71475;SDS011;59286;59.274;17.974;2022-07-03T16:04:55;1.05;;;0.40;;
71475;SDS011;59286;59.274;17.974;2022-07-03T16:07:24;2.72;;;0.50;;
71475;SDS011;59286;59.274;17.974;2022-07-03T16:09:51;0.85;;;0.38;;
71475;SDS011;59286;59.274;17.974;2022-07-03T16:12:17;1.63;;;0.50;;